sensor_id;sensor_type;location;lat;lon;timestamp;pressure;altitude;pressure_sealevel;temperature;humidity
10348;BME280;5220;43.192;23.284;2023-11-19T00:00:05;97030.69;;;7.55;91.32
10348;BME280;5220;43.192;23.284;2023-11-19T00:02:36;97034.31;;;7.67;86.70
10348;BME280;5220;43.192;23.284;2023-11-19T00:05:03;97028.25;;;7.38;88.54
10348;BME280;5220;43.192;23.284;2023-11-19T00:07:34;97034.50;;;7.64;88.09
10348;BME280;5220;43.192;23.284;2023-11-19T00:10:06;97026.44;;;7.40;87.96
10348;BME280;5220;43.192;23.284;2023-11-19T00:12:36;97033.47;;;7.66;89.14
10348;BME280;5220;43.192;23.284;2023-11-19T00:15:04;97048.34;;;7.34;88.63
10348;BME280;5220;43.192;23.284;2023-11-19T00:17:32;97036.59;;;7.43;89.04
10348;BME280;5220;43.192;23.284;2023-11-19T00:19:58;97034.69;;;7.46;90.05
10348;BME280;5220;43.192;23.284;2023-11-19T00:22:25;97047.41;;;7.35;90.41
10348;BME280;5220;43.192;23.284;2023-11-19T00:24:52;97046.41;;;7.08;87.12
10348;BME280;5220;43.192;23.284;2023-11-19T00:27:20;97050.09;;;7.34;86.60
10348;BME280;5220;43.192;23.284;2023-11-19T00:29:47;97053.34;;;7.37;89.28
10348;BME280;5220;43.192;23.284;2023-11-19T00:32:13;97058.69;;;7.34;87.09
10348;BME280;5220;43.192;23.284;2023-11-19T00:34:40;97043.97;;;7.21;87.34
10348;BME280;5220;43.192;23.284;2023-11-19T00:37:07;97056.34;;;7.16;90.28
10348;BME280;5220;43.192;23.284;2023-11-19T00:39:34;97057.38;;;7.27;90.29
10348;BME280;5220;43.192;23.284;2023-11-19T00:42:00;97056.59;;;7.41;89.18
10348;BME280;5220;43.192;23.284;2023-11-19T00:44:28;97050.69;;;7.53;87.34
10348;BME280;5220;43.192;23.284;2023-11-19T00:46:55;97052.25;;;7.70;87.49
10348;BME280;5220;43.192;23.284;2023-11-19T00:49:22;97048.94;;;7.96;84.26
10348;BME280;5220;43.192;23.284;2023-11-19T00:51:48;97048.19;;;7.94;81.83
10348;BME280;5220;43.192;23.284;2023-11-19T00:54:15;97057.25;;;7.87;84.78
10348;BME280;5220;43.192;23.284;2023-11-19T00:56:42;97057.63;;;8.09;85.45
10348;BME280;5220;43.192;23.284;2023-11-19T00:59:10;97062.41;;;8.01;81.91
10348;BME280;5220;43.192;23.284;2023-11-19T01:01:38;97052.72;;;7.76;82.37
10348;BME280;5220;43.192;23.284;2023-11-19T01:04:05;97052.53;;;7.79;83.14
10348;BME280;5220;43.192;23.284;2023-11-19T01:06:32;97051.06;;;7.89;83.41
10348;BME280;5220;43.192;23.284;2023-11-19T01:08:59;97048.72;;;7.85;81.23
10348;BME280;5220;43.192;23.284;2023-11-19T01:11:25;97040.84;;;8.00;78.46
10348;BME280;5220;43.192;23.284;2023-11-19T01:13:53;97044.94;;;8.19;79.26
10348;BME280;5220;43.192;23.284;2023-11-19T01:16:20;97057.59;;;8.23;77.50
10348;BME280;5220;43.192;23.284;2023-11-19T01:18:49;97049.53;;;8.42;76.20
10348;BME280;5220;43.192;23.284;2023-11-19T01:21:16;97056.66;;;8.38;81.53
10348;BME280;5220;43.192;23.284;2023-11-19T01:23:42;97056.66;;;8.10;80.73
10348;BME280;5220;43.192;23.284;2023-11-19T01:26:09;97040.66;;;8.32;80.77
10348;BME280;5220;43.192;23.284;2023-11-19T01:28:37;97049.56;;;8.28;77.46
10348;BME280;5220;43.192;23.284;2023-11-19T01:31:08;97049.38;;;8.31;74.77
10348;BME280;5220;43.192;23.284;2023-11-19T01:33:35;97052.50;;;8.36;76.69
10348;BME280;5220;43.192;23.284;2023-11-19T01:36:04;97059.91;;;8.42;78.14
10348;BME280;5220;43.192;23.284;2023-11-19T01:38:31;97058.72;;;7.91;77.64
10348;BME280;5220;43.192;23.284;2023-11-19T01:40:58;97055.38;;;8.17;75.83
10348;BME280;5220;43.192;23.284;2023-11-19T01:43:34;97051.47;;;8.38;74.46
10348;BME280;5220;43.192;23.284;2023-11-19T01:46:00;97057.47;;;8.53;75.91
10348;BME280;5220;43.192;23.284;2023-11-19T01:48:27;97048.28;;;8.61;78.08
10348;BME280;5220;43.192;23.284;2023-11-19T01:50:55;97048.28;;;8.61;79.75
10348;BME280;5220;43.192;23.284;2023-11-19T01:53:23;97049.63;;;8.67;81.58
10348;BME280;5220;43.192;23.284;2023-11-19T01:55:50;97039.91;;;8.71;83.19
10348;BME280;5220;43.192;23.284;2023-11-19T01:58:18;97024.75;;;8.64;83.04
10348;BME280;5220;43.192;23.284;2023-11-19T02:00:45;97024.75;;;8.64;81.42
10348;BME280;5220;43.192;23.284;2023-11-19T02:03:13;97029.72;;;8.68;80.06
10348;BME280;5220;43.192;23.284;2023-11-19T02:05:41;97030.38;;;8.71;77.82
10348;BME280;5220;43.192;23.284;2023-11-19T02:08:08;97028.63;;;8.72;78.71
10348;BME280;5220;43.192;23.284;2023-11-19T02:10:37;97026.91;;;8.44;84.37
10348;BME280;5220;43.192;23.284;2023-11-19T02:13:04;97027.09;;;8.55;85.33
10348;BME280;5220;43.192;23.284;2023-11-19T02:15:31;97031.44;;;8.54;85.78
10348;BME280;5220;43.192;23.284;2023-11-19T02:18:22;97030.53;;;8.41;87.05
10348;BME280;5220;43.192;23.284;2023-11-19T02:20:53;97040.88;;;7.72;91.36
10348;BME280;5220;43.192;23.284;2023-11-19T02:23:20;97028.34;;;8.07;89.39
10348;BME280;5220;43.192;23.284;2023-11-19T02:25:59;97018.56;;;8.12;87.87
10348;BME280;5220;43.192;23.284;2023-11-19T02:28:28;97025.78;;;7.79;91.01
10348;BME280;5220;43.192;23.284;2023-11-19T02:30:55;97026.91;;;7.61;92.88
10348;BME280;5220;43.192;23.284;2023-11-19T02:33:22;97032.47;;;7.69;92.72
10348;BME280;5220;43.192;23.284;2023-11-19T02:35:50;97022.47;;;7.77;92.38
10348;BME280;5220;43.192;23.284;2023-11-19T02:38:17;97021.53;;;7.64;96.43
10348;BME280;5220;43.192;23.284;2023-11-19T02:40:44;97028.75;;;7.73;93.42
10348;BME280;5220;43.192;23.284;2023-11-19T02:43:10;97024.88;;;7.80;94.69
10348;BME280;5220;43.192;23.284;2023-11-19T02:45:40;97027.66;;;7.63;96.96
10348;BME280;5220;43.192;23.284;2023-11-19T02:48:07;97022.41;;;7.78;94.66
10348;BME280;5220;43.192;23.284;2023-11-19T02:50:35;97023.13;;;7.80;94.64
10348;BME280;5220;43.192;23.284;2023-11-19T02:53:02;97023.19;;;7.79;92.55
10348;BME280;5220;43.192;23.284;2023-11-19T02:55:29;97026.16;;;7.73;92.43
10348;BME280;5220;43.192;23.284;2023-11-19T02:58:01;97021.91;;;7.57;95.34
10348;BME280;5220;43.192;23.284;2023-11-19T03:00:33;97032.75;;;7.64;92.50
10348;BME280;5220;43.192;23.284;2023-11-19T03:03:04;97041.34;;;7.65;93.70
10348;BME280;5220;43.192;23.284;2023-11-19T03:05:43;97051.47;;;6.95;100.00
10348;BME280;5220;43.192;23.284;2023-11-19T03:08:10;97042.59;;;7.29;100.00
10348;BME280;5220;43.192;23.284;2023-11-19T03:10:37;97051.47;;;7.39;97.44
10348;BME280;5220;43.192;23.284;2023-11-19T03:13:04;97035.47;;;6.89;100.00
10348;BME280;5220;43.192;23.284;2023-11-19T03:15:31;97029.47;;;7.18;100.00
10348;BME280;5220;43.192;23.284;2023-11-19T03:17:57;97022.44;;;7.20;100.00
10348;BME280;5220;43.192;23.284;2023-11-19T03:20:25;97024.00;;;7.23;100.00
10348;BME280;5220;43.192;23.284;2023-11-19T03:22:54;97019.28;;;7.15;100.00
10348;BME280;5220;43.192;23.284;2023-11-19T03:25:24;97029.56;;;6.87;100.00
10348;BME280;5220;43.192;23.284;2023-11-19T03:27:52;97033.50;;;6.78;100.00
10348;BME280;5220;43.192;23.284;2023-11-19T03:30:19;97041.69;;;7.00;100.00
10348;BME280;5220;43.192;23.284;2023-11-19T03:32:46;97042.63;;;6.99;100.00
10348;BME280;5220;43.192;23.284;2023-11-19T03:35:13;97039.25;;;6.97;100.00
10348;BME280;5220;43.192;23.284;2023-11-19T03:37:41;97045.88;;;7.03;100.00
10348;BME280;5220;43.192;23.284;2023-11-19T03:40:08;97044.72;;;6.93;100.00
10348;BME280;5220;43.192;23.284;2023-11-19T03:42:36;97045.63;;;6.92;100.00
10348;BME280;5220;43.192;23.284;2023-11-19T03:45:02;97053.56;;;6.89;100.00
10348;BME280;5220;43.192;23.284;2023-11-19T03:47:30;97058.25;;;6.82;100.00
10348;BME280;5220;43.192;23.284;2023-11-19T03:49:56;97063.84;;;6.90;100.00
10348;BME280;5220;43.192;23.284;2023-11-19T03:52:23;97060.38;;;6.44;100.00
10348;BME280;5220;43.192;23.284;2023-11-19T03:54:51;97057.59;;;6.63;100.00
10348;BME280;5220;43.192;23.284;2023-11-19T03:57:18;97057.69;;;6.62;100.00
10348;BME280;5220;43.192;23.284;2023-11-19T03:59:45;97058.38;;;6.49;100.00
10348;BME280;5220;43.192;23.284;2023-11-19T04:02:11;97060.69;;;6.07;100.00
10348;BME280;5220;43.192;23.284;2023-11-19T04:04:38;97052.81;;;6.10;100.00
10348;BME280;5220;43.192;23.284;2023-11-19T04:07:05;97064.88;;;6.10;100.00
10348;BME280;5220;43.192;23.284;2023-11-19T04:09:32;97051.47;;;6.19;100.00
10348;BME280;5220;43.192;23.284;2023-11-19T04:12:00;97049.97;;;6.15;100.00
10348;BME280;5220;43.192;23.284;2023-11-19T04:14:27;97043.91;;;6.16;100.00
10348;BME280;5220;43.192;23.284;2023-11-19T04:16:54;97042.63;;;6.23;100.00
10348;BME280;5220;43.192;23.284;2023-11-19T04:19:21;97048.22;;;6.31;100.00
10348;BME280;5220;43.192;23.284;2023-11-19T04:21:48;97041.31;;;6.16;100.00
10348;BME280;5220;43.192;23.284;2023-11-19T04:24:15;97059.13;;;6.05;100.00
10348;BME280;5220;43.192;23.284;2023-11-19T04:26:42;97050.69;;;6.17;100.00
10348;BME280;5220;43.192;23.284;2023-11-19T04:29:13;97042.22;;;6.15;100.00
10348;BME280;5220;43.192;23.284;2023-11-19T04:31:43;97050.13;;;5.96;100.00
10348;BME280;5220;43.192;23.284;2023-11-19T04:34:11;97046.53;;;5.99;100.00
10348;BME280;5220;43.192;23.284;2023-11-19T04:36:38;97049.22;;;6.13;100.00
10348;BME280;5220;43.192;23.284;2023-11-19T04:39:05;97044.28;;;6.08;100.00
10348;BME280;5220;43.192;23.284;2023-11-19T04:41:35;97042.88;;;6.03;100.00
10348;BME280;5220;43.192;23.284;2023-11-19T04:44:01;97044.22;;;6.10;100.00
10348;BME280;5220;43.192;23.284;2023-11-19T04:46:30;97039.56;;;6.16;100.00
10348;BME280;5220;43.192;23.284;2023-11-19T04:48:56;97040.13;;;6.21;100.00
10348;BME280;5220;43.192;23.284;2023-11-19T04:51:23;97043.56;;;6.22;100.00
10348;BME280;5220;43.192;23.284;2023-11-19T04:53:50;97051.13;;;6.25;100.00
10348;BME280;5220;43.192;23.284;2023-11-19T04:56:18;97061.28;;;6.12;100.00
10348;BME280;5220;43.192;23.284;2023-11-19T04:58:46;97060.13;;;6.18;100.00
10348;BME280;5220;43.192;23.284;2023-11-19T05:01:14;97056.13;;;5.79;100.00
10348;BME280;5220;43.192;23.284;2023-11-19T05:03:45;97047.47;;;5.98;100.00
10348;BME280;5220;43.192;23.284;2023-11-19T05:06:12;97050.47;;;6.06;100.00
10348;BME280;5220;43.192;23.284;2023-11-19T05:08:39;97048.88;;;6.03;100.00
10348;BME280;5220;43.192;23.284;2023-11-19T05:11:06;97048.63;;;6.08;100.00
10348;BME280;5220;43.192;23.284;2023-11-19T05:13:32;97041.19;;;5.86;100.00
10348;BME280;5220;43.192;23.284;2023-11-19T05:15:59;97037.38;;;5.93;100.00
10348;BME280;5220;43.192;23.284;2023-11-19T05:18:26;97039.47;;;6.02;100.00
10348;BME280;5220;43.192;23.284;2023-11-19T05:20:54;97033.47;;;6.02;100.00
10348;BME280;5220;43.192;23.284;2023-11-19T05:23:21;97041.03;;;6.05;100.00
10348;BME280;5220;43.192;23.284;2023-11-19T05:25:47;97039.22;;;6.07;100.00
10348;BME280;5220;43.192;23.284;2023-11-19T05:28:14;97032.88;;;5.97;100.00
10348;BME280;5220;43.192;23.284;2023-11-19T05:30:42;97026.53;;;5.54;100.00
10348;BME280;5220;43.192;23.284;2023-11-19T05:33:09;97028.69;;;5.11;100.00
10348;BME280;5220;43.192;23.284;2023-11-19T05:35:36;97037.97;;;5.65;100.00
10348;BME280;5220;43.192;23.284;2023-11-19T05:38:04;97044.00;;;5.81;100.00
10348;BME280;5220;43.192;23.284;2023-11-19T05:40:31;97029.19;;;5.85;100.00
10348;BME280;5220;43.192;23.284;2023-11-19T05:42:58;97043.31;;;5.78;100.00
10348;BME280;5220;43.192;23.284;2023-11-19T05:45:25;97040.38;;;5.68;100.00
10348;BME280;5220;43.192;23.284;2023-11-19T05:47:51;97043.69;;;5.87;100.00
10348;BME280;5220;43.192;23.284;2023-11-19T05:50:18;97062.28;;;5.77;100.00
10348;BME280;5220;43.192;23.284;2023-11-19T05:52:46;97063.38;;;5.73;100.00
10348;BME280;5220;43.192;23.284;2023-11-19T05:55:14;97072.66;;;5.42;100.00
10348;BME280;5220;43.192;23.284;2023-11-19T05:57:41;97068.34;;;5.60;100.00
10348;BME280;5220;43.192;23.284;2023-11-19T06:00:08;97069.41;;;5.56;100.00
10348;BME280;5220;43.192;23.284;2023-11-19T06:02:38;97059.13;;;5.72;100.00
10348;BME280;5220;43.192;23.284;2023-11-19T06:05:06;97059.72;;;5.77;100.00
10348;BME280;5220;43.192;23.284;2023-11-19T06:07:35;97056.97;;;5.80;100.00
10348;BME280;5220;43.192;23.284;2023-11-19T06:10:04;97052.13;;;5.74;100.00
10348;BME280;5220;43.192;23.284;2023-11-19T06:12:34;97047.31;;;5.83;100.00
10348;BME280;5220;43.192;23.284;2023-11-19T06:15:04;97044.19;;;5.61;100.00
10348;BME280;5220;43.192;23.284;2023-11-19T06:17:33;97057.22;;;5.75;100.00
10348;BME280;5220;43.192;23.284;2023-11-19T06:20:00;97061.38;;;5.78;100.00
10348;BME280;5220;43.192;23.284;2023-11-19T06:22:29;97047.47;;;5.80;100.00
10348;BME280;5220;43.192;23.284;2023-11-19T06:24:56;97054.56;;;5.44;100.00
10348;BME280;5220;43.192;23.284;2023-11-19T06:27:24;97072.34;;;5.49;100.00
10348;BME280;5220;43.192;23.284;2023-11-19T06:29:52;97058.78;;;5.45;100.00
10348;BME280;5220;43.192;23.284;2023-11-19T06:32:18;97062.75;;;5.68;100.00
10348;BME280;5220;43.192;23.284;2023-11-19T06:34:45;97070.50;;;5.18;100.00
10348;BME280;5220;43.192;23.284;2023-11-19T06:37:12;97076.72;;;5.64;100.00
10348;BME280;5220;43.192;23.284;2023-11-19T06:39:38;97066.78;;;5.73;100.00
10348;BME280;5220;43.192;23.284;2023-11-19T06:42:06;97070.81;;;5.79;100.00
10348;BME280;5220;43.192;23.284;2023-11-19T06:44:32;97077.59;;;5.97;100.00
10348;BME280;5220;43.192;23.284;2023-11-19T06:47:01;97067.13;;;6.00;100.00
10348;BME280;5220;43.192;23.284;2023-11-19T06:49:27;97070.09;;;5.92;100.00
10348;BME280;5220;43.192;23.284;2023-11-19T06:51:54;97074.94;;;6.14;100.00
10348;BME280;5220;43.192;23.284;2023-11-19T06:54:21;97068.31;;;6.10;100.00
10348;BME280;5220;43.192;23.284;2023-11-19T06:56:48;97076.63;;;6.31;100.00
10348;BME280;5220;43.192;23.284;2023-11-19T06:59:15;97080.81;;;6.49;100.00
10348;BME280;5220;43.192;23.284;2023-11-19T07:01:42;97079.28;;;6.61;100.00
10348;BME280;5220;43.192;23.284;2023-11-19T07:04:11;97089.28;;;6.67;100.00
10348;BME280;5220;43.192;23.284;2023-11-19T07:06:38;97080.44;;;6.71;100.00
10348;BME280;5220;43.192;23.284;2023-11-19T07:09:06;97082.03;;;6.73;100.00
10348;BME280;5220;43.192;23.284;2023-11-19T07:11:36;97084.63;;;6.73;100.00
10348;BME280;5220;43.192;23.284;2023-11-19T07:14:04;97089.38;;;6.81;100.00
10348;BME280;5220;43.192;23.284;2023-11-19T07:16:31;97100.28;;;6.86;100.00
10348;BME280;5220;43.192;23.284;2023-11-19T07:18:59;97095.88;;;6.88;100.00
10348;BME280;5220;43.192;23.284;2023-11-19T07:21:27;97104.25;;;6.91;100.00
10348;BME280;5220;43.192;23.284;2023-11-19T07:23:54;97107.97;;;6.87;100.00
10348;BME280;5220;43.192;23.284;2023-11-19T07:26:21;97101.44;;;6.96;100.00
10348;BME280;5220;43.192;23.284;2023-11-19T07:28:48;97101.09;;;7.02;100.00
10348;BME280;5220;43.192;23.284;2023-11-19T07:31:15;97091.47;;;7.04;100.00
10348;BME280;5220;43.192;23.284;2023-11-19T07:33:41;97103.31;;;7.08;100.00
10348;BME280;5220;43.192;23.284;2023-11-19T07:36:09;97095.41;;;7.11;100.00
10348;BME280;5220;43.192;23.284;2023-11-19T07:38:38;97103.59;;;7.03;100.00
10348;BME280;5220;43.192;23.284;2023-11-19T07:41:05;97102.31;;;7.11;100.00
10348;BME280;5220;43.192;23.284;2023-11-19T07:43:34;97104.31;;;7.21;100.00
10348;BME280;5220;43.192;23.284;2023-11-19T07:46:01;97095.00;;;7.33;100.00
10348;BME280;5220;43.192;23.284;2023-11-19T07:48:29;97096.97;;;7.43;100.00
10348;BME280;5220;43.192;23.284;2023-11-19T07:50:55;97094.41;;;7.57;100.00
10348;BME280;5220;43.192;23.284;2023-11-19T07:53:22;97099.88;;;7.67;100.00
10348;BME280;5220;43.192;23.284;2023-11-19T07:55:50;97089.25;;;7.86;100.00
10348;BME280;5220;43.192;23.284;2023-11-19T07:58:17;97081.38;;;8.01;100.00
10348;BME280;5220;43.192;23.284;2023-11-19T08:00:44;97084.59;;;8.19;100.00
10348;BME280;5220;43.192;23.284;2023-11-19T08:03:10;97093.50;;;8.29;100.00
10348;BME280;5220;43.192;23.284;2023-11-19T08:05:37;97091.53;;;8.61;100.00
10348;BME280;5220;43.192;23.284;2023-11-19T08:08:04;97093.09;;;8.63;99.02
10348;BME280;5220;43.192;23.284;2023-11-19T08:10:31;97100.97;;;8.62;91.54
10348;BME280;5220;43.192;23.284;2023-11-19T08:12:59;97091.81;;;8.83;91.17
10348;BME280;5220;43.192;23.284;2023-11-19T08:15:26;97081.19;;;9.00;85.54
10348;BME280;5220;43.192;23.284;2023-11-19T08:17:53;97090.84;;;8.98;75.15
10348;BME280;5220;43.192;23.284;2023-11-19T08:20:20;97085.28;;;9.17;70.82
10348;BME280;5220;43.192;23.284;2023-11-19T08:22:46;97092.03;;;9.19;73.83
10348;BME280;5220;43.192;23.284;2023-11-19T08:25:13;97108.66;;;9.17;71.36
10348;BME280;5220;43.192;23.284;2023-11-19T08:27:40;97113.69;;;9.33;75.67
10348;BME280;5220;43.192;23.284;2023-11-19T08:30:10;97107.59;;;9.46;70.01
10348;BME280;5220;43.192;23.284;2023-11-19T08:32:37;97107.41;;;9.62;66.40
10348;BME280;5220;43.192;23.284;2023-11-19T08:35:04;97110.19;;;9.71;64.70
10348;BME280;5220;43.192;23.284;2023-11-19T08:37:31;97104.66;;;9.51;59.54
10348;BME280;5220;43.192;23.284;2023-11-19T08:39:57;97102.00;;;9.65;58.84
10348;BME280;5220;43.192;23.284;2023-11-19T08:42:24;97112.16;;;9.55;61.08
10348;BME280;5220;43.192;23.284;2023-11-19T08:44:51;97114.84;;;9.54;60.66
10348;BME280;5220;43.192;23.284;2023-11-19T08:47:21;97097.81;;;9.62;57.39
10348;BME280;5220;43.192;23.284;2023-11-19T08:49:50;97092.63;;;9.75;56.58
10348;BME280;5220;43.192;23.284;2023-11-19T08:52:17;97088.81;;;9.81;60.29
10348;BME280;5220;43.192;23.284;2023-11-19T08:54:44;97092.34;;;10.05;57.21
10348;BME280;5220;43.192;23.284;2023-11-19T08:57:11;97095.59;;;10.21;59.37
10348;BME280;5220;43.192;23.284;2023-11-19T08:59:37;97086.81;;;10.22;57.69
10348;BME280;5220;43.192;23.284;2023-11-19T09:02:04;97069.44;;;10.35;55.76
10348;BME280;5220;43.192;23.284;2023-11-19T09:04:33;97075.09;;;10.53;57.13
10348;BME280;5220;43.192;23.284;2023-11-19T09:07:01;97086.50;;;10.39;56.46
10348;BME280;5220;43.192;23.284;2023-11-19T09:09:28;97095.75;;;10.31;56.36
10348;BME280;5220;43.192;23.284;2023-11-19T09:11:55;97098.00;;;10.48;54.38
10348;BME280;5220;43.192;23.284;2023-11-19T09:14:22;97098.53;;;10.40;53.65
10348;BME280;5220;43.192;23.284;2023-11-19T09:16:51;97106.16;;;9.93;56.03
10348;BME280;5220;43.192;23.284;2023-11-19T09:19:17;97101.00;;;10.18;55.33
10348;BME280;5220;43.192;23.284;2023-11-19T09:21:45;97100.13;;;10.30;55.63
10348;BME280;5220;43.192;23.284;2023-11-19T09:24:14;97095.63;;;10.45;54.77
10348;BME280;5220;43.192;23.284;2023-11-19T09:26:41;97084.31;;;10.69;54.02
10348;BME280;5220;43.192;23.284;2023-11-19T09:29:08;97074.75;;;10.70;54.15
10348;BME280;5220;43.192;23.284;2023-11-19T09:31:34;97072.03;;;11.19;91.45
10348;BME280;5220;43.192;23.284;2023-11-19T09:34:01;97063.19;;;11.32;67.87
10348;BME280;5220;43.192;23.284;2023-11-19T09:36:28;97065.00;;;11.43;56.79
10348;BME280;5220;43.192;23.284;2023-11-19T09:38:56;97048.41;;;11.33;54.61
10348;BME280;5220;43.192;23.284;2023-11-19T09:41:23;97053.88;;;11.52;54.05
10348;BME280;5220;43.192;23.284;2023-11-19T09:43:53;97052.00;;;11.65;52.92
10348;BME280;5220;43.192;23.284;2023-11-19T09:46:21;97046.03;;;11.76;52.11
10348;BME280;5220;43.192;23.284;2023-11-19T09:48:52;97044.66;;;11.48;52.06
10348;BME280;5220;43.192;23.284;2023-11-19T09:51:20;97042.75;;;11.39;51.78
10348;BME280;5220;43.192;23.284;2023-11-19T09:53:47;97038.22;;;11.41;53.43
10348;BME280;5220;43.192;23.284;2023-11-19T09:56:16;97033.63;;;11.45;53.22
10348;BME280;5220;43.192;23.284;2023-11-19T09:58:43;97019.22;;;11.63;52.28
10348;BME280;5220;43.192;23.284;2023-11-19T10:01:10;97020.06;;;11.74;52.87
10348;BME280;5220;43.192;23.284;2023-11-19T10:03:38;97029.31;;;11.78;50.36
10348;BME280;5220;43.192;23.284;2023-11-19T10:06:07;97013.69;;;11.90;48.97
10348;BME280;5220;43.192;23.284;2023-11-19T10:08:34;97015.47;;;12.00;50.70
10348;BME280;5220;43.192;23.284;2023-11-19T10:11:01;97017.38;;;11.98;49.13
10348;BME280;5220;43.192;23.284;2023-11-19T10:13:29;97010.50;;;11.86;50.50
10348;BME280;5220;43.192;23.284;2023-11-19T10:15:56;96994.50;;;12.02;49.10
10348;BME280;5220;43.192;23.284;2023-11-19T10:18:25;96998.88;;;11.79;48.38
10348;BME280;5220;43.192;23.284;2023-11-19T10:20:52;97000.63;;;11.67;49.84
10348;BME280;5220;43.192;23.284;2023-11-19T10:23:20;97003.50;;;11.75;50.83
10348;BME280;5220;43.192;23.284;2023-11-19T10:25:47;97000.63;;;11.67;51.88
10348;BME280;5220;43.192;23.284;2023-11-19T10:28:15;97000.88;;;11.86;56.36
10348;BME280;5220;43.192;23.284;2023-11-19T10:30:44;97001.97;;;11.73;51.11
10348;BME280;5220;43.192;23.284;2023-11-19T10:33:12;97002.53;;;11.88;51.22
10348;BME280;5220;43.192;23.284;2023-11-19T10:35:52;97013.22;;;11.84;48.77
10348;BME280;5220;43.192;23.284;2023-11-19T10:38:20;96999.59;;;12.03;49.58
10348;BME280;5220;43.192;23.284;2023-11-19T10:40:47;96988.44;;;12.12;49.92
10348;BME280;5220;43.192;23.284;2023-11-19T10:43:14;96991.25;;;12.31;52.29
10348;BME280;5220;43.192;23.284;2023-11-19T10:45:41;96982.97;;;12.26;49.76
10348;BME280;5220;43.192;23.284;2023-11-19T10:48:09;96977.56;;;12.50;54.03
10348;BME280;5220;43.192;23.284;2023-11-19T10:50:40;96980.38;;;12.58;51.47
10348;BME280;5220;43.192;23.284;2023-11-19T10:53:08;96978.25;;;12.63;54.99
10348;BME280;5220;43.192;23.284;2023-11-19T10:55:36;96979.78;;;12.66;50.61
10348;BME280;5220;43.192;23.284;2023-11-19T10:58:04;96965.31;;;12.62;49.99
10348;BME280;5220;43.192;23.284;2023-11-19T11:00:36;96964.94;;;12.66;49.04
10348;BME280;5220;43.192;23.284;2023-11-19T11:03:10;96958.56;;;12.59;47.61
10348;BME280;5220;43.192;23.284;2023-11-19T11:05:38;96959.91;;;12.43;48.93
10348;BME280;5220;43.192;23.284;2023-11-19T11:08:07;96954.59;;;12.33;49.79
10348;BME280;5220;43.192;23.284;2023-11-19T11:10:39;96963.63;;;12.29;50.98
10348;BME280;5220;43.192;23.284;2023-11-19T11:13:06;96959.25;;;12.18;47.91
10348;BME280;5220;43.192;23.284;2023-11-19T11:15:34;96968.59;;;12.32;48.75
10348;BME280;5220;43.192;23.284;2023-11-19T11:18:02;96967.69;;;12.22;48.57
10348;BME280;5220;43.192;23.284;2023-11-19T11:20:31;96972.53;;;12.15;49.98
10348;BME280;5220;43.192;23.284;2023-11-19T11:26:02;96974.31;;;12.26;48.26
10348;BME280;5220;43.192;23.284;2023-11-19T11:28:39;96966.53;;;12.04;48.23
10348;BME280;5220;43.192;23.284;2023-11-19T11:31:15;96951.56;;;12.17;49.31
10348;BME280;5220;43.192;23.284;2023-11-19T11:34:04;96946.31;;;12.39;49.65
10348;BME280;5220;43.192;23.284;2023-11-19T11:36:44;96948.69;;;12.31;48.83
10348;BME280;5220;43.192;23.284;2023-11-19T11:39:14;96944.66;;;12.27;48.92
10348;BME280;5220;43.192;23.284;2023-11-19T11:41:42;96956.75;;;12.39;48.28
10348;BME280;5220;43.192;23.284;2023-11-19T11:44:10;96949.38;;;12.33;50.28
10348;BME280;5220;43.192;23.284;2023-11-19T11:46:55;96958.59;;;12.48;68.58
10348;BME280;5220;43.192;23.284;2023-11-19T11:49:28;96952.66;;;12.78;72.89
10348;BME280;5220;43.192;23.284;2023-11-19T11:52:04;96941.28;;;13.00;59.31
10348;BME280;5220;43.192;23.284;2023-11-19T11:54:31;96939.22;;;13.35;55.46
10348;BME280;5220;43.192;23.284;2023-11-19T11:57:06;96932.22;;;13.45;47.91
10348;BME280;5220;43.192;23.284;2023-11-19T11:59:37;96915.34;;;13.19;45.80
10348;BME280;5220;43.192;23.284;2023-11-19T12:02:11;96906.00;;;13.05;47.21
10348;BME280;5220;43.192;23.284;2023-11-19T12:04:40;96902.69;;;13.03;47.23
10348;BME280;5220;43.192;23.284;2023-11-19T12:07:12;96897.63;;;13.22;52.34
10348;BME280;5220;43.192;23.284;2023-11-19T12:09:40;96891.16;;;13.26;48.41
10348;BME280;5220;43.192;23.284;2023-11-19T12:12:13;96894.28;;;13.20;47.08
10348;BME280;5220;43.192;23.284;2023-11-19T12:15:06;96900.53;;;13.29;45.58
10348;BME280;5220;43.192;23.284;2023-11-19T12:17:47;96897.03;;;13.19;45.61
10348;BME280;5220;43.192;23.284;2023-11-19T12:20:16;96890.63;;;13.23;45.96
10348;BME280;5220;43.192;23.284;2023-11-19T12:22:46;96879.78;;;13.07;47.02
10348;BME280;5220;43.192;23.284;2023-11-19T12:25:15;96885.19;;;12.94;45.53
10348;BME280;5220;43.192;23.284;2023-11-19T12:27:44;96876.41;;;12.74;47.46
10348;BME280;5220;43.192;23.284;2023-11-19T12:30:11;96889.72;;;12.39;46.80
10348;BME280;5220;43.192;23.284;2023-11-19T12:32:39;96892.63;;;12.78;46.84
10348;BME280;5220;43.192;23.284;2023-11-19T12:35:07;96892.63;;;12.78;45.25
10348;BME280;5220;43.192;23.284;2023-11-19T12:37:39;96905.75;;;12.87;45.91
10348;BME280;5220;43.192;23.284;2023-11-19T12:40:13;96902.72;;;12.82;46.03
10348;BME280;5220;43.192;23.284;2023-11-19T12:42:40;96911.47;;;12.81;47.08
10348;BME280;5220;43.192;23.284;2023-11-19T12:45:08;96903.47;;;12.94;45.84
10348;BME280;5220;43.192;23.284;2023-11-19T12:47:36;96898.78;;;13.09;45.65
10348;BME280;5220;43.192;23.284;2023-11-19T12:50:03;96893.50;;;13.20;45.67
10348;BME280;5220;43.192;23.284;2023-11-19T12:52:29;96889.59;;;13.14;45.57
10348;BME280;5220;43.192;23.284;2023-11-19T12:54:56;96882.38;;;13.27;44.57
10348;BME280;5220;43.192;23.284;2023-11-19T12:57:37;96882.50;;;13.05;47.33
10348;BME280;5220;43.192;23.284;2023-11-19T13:00:05;96884.66;;;12.27;48.32
10348;BME280;5220;43.192;23.284;2023-11-19T13:02:48;96882.31;;;12.56;47.84
10348;BME280;5220;43.192;23.284;2023-11-19T13:05:25;96881.88;;;12.71;46.34
10348;BME280;5220;43.192;23.284;2023-11-19T13:08:02;96876.31;;;12.44;48.07
10348;BME280;5220;43.192;23.284;2023-11-19T13:10:31;96889.81;;;12.49;48.06